Aartselaar, Belgium
Current Conditions -  °F | °C
As of 8:20 PM on Monday 20 Oct 2014 (Local Time) from EBAW Reporting Station
Scattered Clouds Scattered Clouds  
Wind Chill: 59°   Ceiling: Unl
Heat Index: 59°   Visibility: 6mi
Dew Point: 52°   Wind: 8mph
Humidity: 77%   Direction: 250°WSW
Pressure: 29.97"   Gusts: NA
Location:  51.13°N, 4.39°E
Report Text: EBAW 201820Z 25007KT 9999 SCT029 15/11 Q1015 NOSIG
Loading
Personal Weather Stations






























Interactive Weather Map
Tropical Storm Tracking
New forecast layout! Learn more

10-Day Weather Forecast

Advertisements
Track Severe Weather on mobile